sensor_id;sensor_type;location;lat;lon;timestamp;temperature;humidity
45383;DHT22;42455;51.660;5.824;2022-09-13T00:01:11;19.6;92.0
45383;DHT22;42455;51.660;5.824;2022-09-13T00:06:19;19.6;92.0
45383;DHT22;42455;51.660;5.824;2022-09-13T00:11:25;19.6;92.0
45383;DHT22;42455;51.660;5.824;2022-09-13T00:16:30;19.6;92.0
45383;DHT22;42455;51.660;5.824;2022-09-13T00:21:36;19.6;92.0
45383;DHT22;42455;51.660;5.824;2022-09-13T00:26:42;19.7;92.0
45383;DHT22;42455;51.660;5.824;2022-09-13T00:31:48;19.7;92.0
45383;DHT22;42455;51.660;5.824;2022-09-13T00:36:55;19.6;92.0
45383;DHT22;42455;51.660;5.824;2022-09-13T00:42:00;19.6;92.0
45383;DHT22;42455;51.660;5.824;2022-09-13T00:47:06;19.6;92.0
45383;DHT22;42455;51.660;5.824;2022-09-13T00:52:17;19.6;92.0
45383;DHT22;42455;51.660;5.824;2022-09-13T00:57:19;19.6;92.0
45383;DHT22;42455;51.660;5.824;2022-09-13T01:02:23;19.6;92.0
45383;DHT22;42455;51.660;5.824;2022-09-13T01:07:29;19.6;91.5
45383;DHT22;42455;51.660;5.824;2022-09-13T01:12:42;19.7;91.5
45383;DHT22;42455;51.660;5.824;2022-09-13T01:17:42;19.7;91.5
45383;DHT22;42455;51.660;5.824;2022-09-13T01:24:22;19.7;91.5
45383;DHT22;42455;51.660;5.824;2022-09-13T01:30:07;19.7;91.5
45383;DHT22;42455;51.660;5.824;2022-09-13T01:34:11;19.7;91.0
45383;DHT22;42455;51.660;5.824;2022-09-13T01:39:48;19.8;91.0
45383;DHT22;42455;51.660;5.824;2022-09-13T01:45:52;19.8;91.0
45383;DHT22;42455;51.660;5.824;2022-09-13T01:50:21;19.8;91.0
45383;DHT22;42455;51.660;5.824;2022-09-13T01:54:31;19.8;90.5
45383;DHT22;42455;51.660;5.824;2022-09-13T01:58:59;19.8;90.5
45383;DHT22;42455;51.660;5.824;2022-09-13T02:03:43;19.8;90.5
45383;DHT22;42455;51.660;5.824;2022-09-13T02:08:45;19.8;90.5
45383;DHT22;42455;51.660;5.824;2022-09-13T02:13:54;19.8;90.5
45383;DHT22;42455;51.660;5.824;2022-09-13T02:18:58;19.8;90.5
45383;DHT22;42455;51.660;5.824;2022-09-13T02:24:05;19.8;90.5
45383;DHT22;42455;51.660;5.824;2022-09-13T02:29:12;19.8;90.5
45383;DHT22;42455;51.660;5.824;2022-09-13T02:34:18;19.8;90.5
45383;DHT22;42455;51.660;5.824;2022-09-13T02:39:23;19.8;90.5
45383;DHT22;42455;51.660;5.824;2022-09-13T02:44:31;19.8;90.5
45383;DHT22;42455;51.660;5.824;2022-09-13T02:49:47;19.8;90.5
45383;DHT22;42455;51.660;5.824;2022-09-13T02:54:48;19.8;90.5
45383;DHT22;42455;51.660;5.824;2022-09-13T02:59:44;19.8;90.5
45383;DHT22;42455;51.660;5.824;2022-09-13T03:04:50;19.8;90.5
45383;DHT22;42455;51.660;5.824;2022-09-13T03:10:00;19.8;90.5
45383;DHT22;42455;51.660;5.824;2022-09-13T03:16:23;19.8;90.5
45383;DHT22;42455;51.660;5.824;2022-09-13T03:22:35;19.8;91.0
45383;DHT22;42455;51.660;5.824;2022-09-13T03:27:57;19.8;91.0
45383;DHT22;42455;51.660;5.824;2022-09-13T03:30:21;19.8;91.0
45383;DHT22;42455;51.660;5.824;2022-09-13T03:35:44;19.8;91.0
45383;DHT22;42455;51.660;5.824;2022-09-13T03:40:44;19.8;91.0
45383;DHT22;42455;51.660;5.824;2022-09-13T03:45:47;19.7;91.5
45383;DHT22;42455;51.660;5.824;2022-09-13T03:50:46;19.7;91.5
45383;DHT22;42455;51.660;5.824;2022-09-13T03:55:52;19.7;91.5
45383;DHT22;42455;51.660;5.824;2022-09-13T04:00:58;19.7;91.5
45383;DHT22;42455;51.660;5.824;2022-09-13T04:06:05;19.7;91.5
45383;DHT22;42455;51.660;5.824;2022-09-13T04:11:10;19.6;91.5
45383;DHT22;42455;51.660;5.824;2022-09-13T04:16:17;19.6;91.5
45383;DHT22;42455;51.660;5.824;2022-09-13T04:21:23;19.6;91.5
45383;DHT22;42455;51.660;5.824;2022-09-13T04:26:29;19.5;91.5
45383;DHT22;42455;51.660;5.824;2022-09-13T04:31:35;19.5;91.5
45383;DHT22;42455;51.660;5.824;2022-09-13T04:36:41;19.5;91.5
45383;DHT22;42455;51.660;5.824;2022-09-13T04:41:48;19.4;92.0
45383;DHT22;42455;51.660;5.824;2022-09-13T04:46:53;19.4;92.0
45383;DHT22;42455;51.660;5.824;2022-09-13T04:51:59;19.4;92.0
45383;DHT22;42455;51.660;5.824;2022-09-13T04:57:04;19.4;92.0
45383;DHT22;42455;51.660;5.824;2022-09-13T05:02:10;19.4;92.0
45383;DHT22;42455;51.660;5.824;2022-09-13T05:07:17;19.3;92.5
45383;DHT22;42455;51.660;5.824;2022-09-13T05:12:23;19.3;92.5
45383;DHT22;42455;51.660;5.824;2022-09-13T05:17:29;19.3;92.5
45383;DHT22;42455;51.660;5.824;2022-09-13T05:22:35;19.3;92.5
45383;DHT22;42455;51.660;5.824;2022-09-13T05:27:43;19.3;92.5
45383;DHT22;42455;51.660;5.824;2022-09-13T05:32:48;19.3;92.5
45383;DHT22;42455;51.660;5.824;2022-09-13T05:37:54;19.3;92.5
45383;DHT22;42455;51.660;5.824;2022-09-13T05:43:00;19.3;92.5
45383;DHT22;42455;51.660;5.824;2022-09-13T05:48:06;19.4;93.0
45383;DHT22;42455;51.660;5.824;2022-09-13T05:53:12;19.4;93.0
45383;DHT22;42455;51.660;5.824;2022-09-13T05:58:19;19.4;93.0
45383;DHT22;42455;51.660;5.824;2022-09-13T06:03:26;19.5;93.0
45383;DHT22;42455;51.660;5.824;2022-09-13T06:08:33;19.5;93.0
45383;DHT22;42455;51.660;5.824;2022-09-13T06:13:38;19.5;93.0
45383;DHT22;42455;51.660;5.824;2022-09-13T06:18:44;19.5;93.0
45383;DHT22;42455;51.660;5.824;2022-09-13T06:23:52;19.6;93.0
45383;DHT22;42455;51.660;5.824;2022-09-13T06:28:56;19.6;93.0
45383;DHT22;42455;51.660;5.824;2022-09-13T06:34:02;19.7;93.0
45383;DHT22;42455;51.660;5.824;2022-09-13T06:39:08;19.8;93.0
45383;DHT22;42455;51.660;5.824;2022-09-13T06:44:14;19.9;93.0
45383;DHT22;42455;51.660;5.824;2022-09-13T06:49:20;20.0;93.0
45383;DHT22;42455;51.660;5.824;2022-09-13T06:54:25;20.1;93.0
45383;DHT22;42455;51.660;5.824;2022-09-13T06:59:31;20.2;93.0
45383;DHT22;42455;51.660;5.824;2022-09-13T07:04:38;20.4;93.0
45383;DHT22;42455;51.660;5.824;2022-09-13T07:09:44;20.7;93.0
45383;DHT22;42455;51.660;5.824;2022-09-13T07:14:50;21.0;93.0
45383;DHT22;42455;51.660;5.824;2022-09-13T07:19:56;21.2;92.0
45383;DHT22;42455;51.660;5.824;2022-09-13T07:25:02;21.4;92.0
45383;DHT22;42455;51.660;5.824;2022-09-13T07:30:09;21.6;91.5
45383;DHT22;42455;51.660;5.824;2022-09-13T07:35:15;21.9;91.5
45383;DHT22;42455;51.660;5.824;2022-09-13T07:40:21;22.1;91.0
45383;DHT22;42455;51.660;5.824;2022-09-13T07:45:27;22.3;90.5
45383;DHT22;42455;51.660;5.824;2022-09-13T07:50:33;22.5;90.5
45383;DHT22;42455;51.660;5.824;2022-09-13T07:55:40;22.7;90.5
45383;DHT22;42455;51.660;5.824;2022-09-13T08:00:46;23.0;90.0
45383;DHT22;42455;51.660;5.824;2022-09-13T08:05:52;23.2;89.5
45383;DHT22;42455;51.660;5.824;2022-09-13T08:10:59;23.3;89.0
45383;DHT22;42455;51.660;5.824;2022-09-13T08:16:05;23.4;88.0
45383;DHT22;42455;51.660;5.824;2022-09-13T08:21:11;23.6;88.0
45383;DHT22;42455;51.660;5.824;2022-09-13T08:26:17;23.7;88.0
45383;DHT22;42455;51.660;5.824;2022-09-13T08:31:23;23.9;87.5
45383;DHT22;42455;51.660;5.824;2022-09-13T08:36:29;24.1;87.5
45383;DHT22;42455;51.660;5.824;2022-09-13T08:41:43;24.2;87.0
45383;DHT22;42455;51.660;5.824;2022-09-13T08:46:45;24.4;87.0
45383;DHT22;42455;51.660;5.824;2022-09-13T08:51:48;24.5;86.5
45383;DHT22;42455;51.660;5.824;2022-09-13T08:57:02;24.6;86.0
45383;DHT22;42455;51.660;5.824;2022-09-13T09:02:08;24.7;86.0
45383;DHT22;42455;51.660;5.824;2022-09-13T09:07:14;24.9;86.0
45383;DHT22;42455;51.660;5.824;2022-09-13T09:12:16;24.9;85.5
45383;DHT22;42455;51.660;5.824;2022-09-13T09:17:29;25.0;85.0
45383;DHT22;42455;51.660;5.824;2022-09-13T09:22:26;25.0;85.0
45383;DHT22;42455;51.660;5.824;2022-09-13T09:27:30;25.1;85.0
45383;DHT22;42455;51.660;5.824;2022-09-13T09:33:01;25.2;85.0
45383;DHT22;42455;51.660;5.824;2022-09-13T09:37:45;25.3;84.5
45383;DHT22;42455;51.660;5.824;2022-09-13T09:42:48;25.4;84.5
45383;DHT22;42455;51.660;5.824;2022-09-13T09:47:57;25.6;84.5
45383;DHT22;42455;51.660;5.824;2022-09-13T09:53:17;25.7;84.5
45383;DHT22;42455;51.660;5.824;2022-09-13T09:58:07;25.9;84.0
45383;DHT22;42455;51.660;5.824;2022-09-13T10:03:18;26.0;84.0
45383;DHT22;42455;51.660;5.824;2022-09-13T10:08:27;26.0;83.5
45383;DHT22;42455;51.660;5.824;2022-09-13T10:13:27;26.1;83.5
45383;DHT22;42455;51.660;5.824;2022-09-13T10:18:32;26.1;83.5
45383;DHT22;42455;51.660;5.824;2022-09-13T10:23:38;26.0;83.0
45383;DHT22;42455;51.660;5.824;2022-09-13T10:28:55;25.9;83.5
45383;DHT22;42455;51.660;5.824;2022-09-13T10:33:55;25.9;83.5
45383;DHT22;42455;51.660;5.824;2022-09-13T10:39:03;26.0;83.5
45383;DHT22;42455;51.660;5.824;2022-09-13T10:44:03;26.2;83.0
45383;DHT22;42455;51.660;5.824;2022-09-13T10:49:37;26.3;82.5
45383;DHT22;42455;51.660;5.824;2022-09-13T10:54:18;26.4;82.5
45383;DHT22;42455;51.660;5.824;2022-09-13T10:59:27;26.6;82.0
45383;DHT22;42455;51.660;5.824;2022-09-13T11:05:30;26.7;81.5
45383;DHT22;42455;51.660;5.824;2022-09-13T11:10:02;26.7;80.5
45383;DHT22;42455;51.660;5.824;2022-09-13T11:15:26;26.6;81.0
45383;DHT22;42455;51.660;5.824;2022-09-13T11:21:19;26.6;81.0
45383;DHT22;42455;51.660;5.824;2022-09-13T11:26:51;26.7;81.0
45383;DHT22;42455;51.660;5.824;2022-09-13T11:32:04;26.6;81.0
45383;DHT22;42455;51.660;5.824;2022-09-13T11:37:32;26.5;81.0
45383;DHT22;42455;51.660;5.824;2022-09-13T11:42:46;26.4;81.0
45383;DHT22;42455;51.660;5.824;2022-09-13T11:47:43;26.4;81.5
45383;DHT22;42455;51.660;5.824;2022-09-13T11:53:06;26.3;81.5
45383;DHT22;42455;51.660;5.824;2022-09-13T11:56:54;26.3;81.5
45383;DHT22;42455;51.660;5.824;2022-09-13T12:00:39;26.4;81.5
45383;DHT22;42455;51.660;5.824;2022-09-13T12:05:43;26.4;81.5
45383;DHT22;42455;51.660;5.824;2022-09-13T12:10:54;26.4;81.5
45383;DHT22;42455;51.660;5.824;2022-09-13T12:15:55;26.3;81.0
45383;DHT22;42455;51.660;5.824;2022-09-13T12:21:03;26.3;81.5
45383;DHT22;42455;51.660;5.824;2022-09-13T12:26:07;26.5;81.5
45383;DHT22;42455;51.660;5.824;2022-09-13T12:31:13;26.5;81.0
45383;DHT22;42455;51.660;5.824;2022-09-13T12:36:54;26.5;81.0
45383;DHT22;42455;51.660;5.824;2022-09-13T12:43:01;26.5;81.0
45383;DHT22;42455;51.660;5.824;2022-09-13T12:49:12;26.5;81.0
45383;DHT22;42455;51.660;5.824;2022-09-13T12:54:40;26.4;81.0
45383;DHT22;42455;51.660;5.824;2022-09-13T13:00:18;26.4;81.0
45383;DHT22;42455;51.660;5.824;2022-09-13T13:01:50;26.5;81.0
45383;DHT22;42455;51.660;5.824;2022-09-13T13:06:54;26.5;80.5
45383;DHT22;42455;51.660;5.824;2022-09-13T13:11:59;26.6;80.5
45383;DHT22;42455;51.660;5.824;2022-09-13T13:17:33;26.7;80.0
45383;DHT22;42455;51.660;5.824;2022-09-13T13:22:49;26.8;80.0
45383;DHT22;42455;51.660;5.824;2022-09-13T13:27:38;26.9;79.5
45383;DHT22;42455;51.660;5.824;2022-09-13T13:32:24;26.9;79.5
45383;DHT22;42455;51.660;5.824;2022-09-13T13:37:36;26.9;79.5
45383;DHT22;42455;51.660;5.824;2022-09-13T13:42:36;27.1;79.0
45383;DHT22;42455;51.660;5.824;2022-09-13T13:48:13;27.2;79.0
45383;DHT22;42455;51.660;5.824;2022-09-13T13:52:56;27.2;78.5
45383;DHT22;42455;51.660;5.824;2022-09-13T13:58:04;27.2;78.0
45383;DHT22;42455;51.660;5.824;2022-09-13T14:03:07;27.2;78.5
45383;DHT22;42455;51.660;5.824;2022-09-13T14:08:34;27.1;78.5
45383;DHT22;42455;51.660;5.824;2022-09-13T14:13:53;27.1;78.0
45383;DHT22;42455;51.660;5.824;2022-09-13T14:19:28;27.1;78.0
45383;DHT22;42455;51.660;5.824;2022-09-13T14:23:26;27.2;78.0
45383;DHT22;42455;51.660;5.824;2022-09-13T14:28:33;27.3;77.5
45383;DHT22;42455;51.660;5.824;2022-09-13T14:33:38;27.3;77.5
45383;DHT22;42455;51.660;5.824;2022-09-13T14:38:47;27.4;77.5
45383;DHT22;42455;51.660;5.824;2022-09-13T14:43:49;27.4;77.0
45383;DHT22;42455;51.660;5.824;2022-09-13T14:48:56;27.5;76.5
45383;DHT22;42455;51.660;5.824;2022-09-13T14:54:17;27.3;76.5
45383;DHT22;42455;51.660;5.824;2022-09-13T14:59:12;27.2;76.5
45383;DHT22;42455;51.660;5.824;2022-09-13T15:04:16;27.0;76.5
45383;DHT22;42455;51.660;5.824;2022-09-13T15:09:26;26.9;77.0
45383;DHT22;42455;51.660;5.824;2022-09-13T15:14:33;26.9;77.0
45383;DHT22;42455;51.660;5.824;2022-09-13T15:19:37;26.8;77.0
45383;DHT22;42455;51.660;5.824;2022-09-13T15:24:41;26.8;77.0
45383;DHT22;42455;51.660;5.824;2022-09-13T15:29:47;26.7;77.5
45383;DHT22;42455;51.660;5.824;2022-09-13T15:34:50;26.5;77.5
45383;DHT22;42455;51.660;5.824;2022-09-13T15:40:15;26.4;77.5
45383;DHT22;42455;51.660;5.824;2022-09-13T15:45:03;26.3;78.0
45383;DHT22;42455;51.660;5.824;2022-09-13T15:50:17;26.2;78.5
45383;DHT22;42455;51.660;5.824;2022-09-13T15:55:15;26.1;79.0
45383;DHT22;42455;51.660;5.824;2022-09-13T16:00:23;26.0;79.0
45383;DHT22;42455;51.660;5.824;2022-09-13T16:05:27;25.9;79.5
45383;DHT22;42455;51.660;5.824;2022-09-13T16:10:33;25.8;79.5
45383;DHT22;42455;51.660;5.824;2022-09-13T16:15:40;25.7;79.5
45383;DHT22;42455;51.660;5.824;2022-09-13T16:20:46;25.6;79.5
45383;DHT22;42455;51.660;5.824;2022-09-13T16:25:54;25.4;80.0
45383;DHT22;42455;51.660;5.824;2022-09-13T16:30:58;25.3;80.0
45383;DHT22;42455;51.660;5.824;2022-09-13T16:36:05;25.2;80.5
45383;DHT22;42455;51.660;5.824;2022-09-13T16:41:10;25.1;80.5
45383;DHT22;42455;51.660;5.824;2022-09-13T16:46:16;25.0;80.5
45383;DHT22;42455;51.660;5.824;2022-09-13T16:51:22;24.9;81.0
45383;DHT22;42455;51.660;5.824;2022-09-13T16:56:28;24.8;81.0
45383;DHT22;42455;51.660;5.824;2022-09-13T17:06:40;24.5;81.0
45383;DHT22;42455;51.660;5.824;2022-09-13T17:11:46;24.4;81.0
45383;DHT22;42455;51.660;5.824;2022-09-13T17:16:54;24.3;81.0
45383;DHT22;42455;51.660;5.824;2022-09-13T17:22:00;24.2;81.5
45383;DHT22;42455;51.660;5.824;2022-09-13T17:27:05;24.1;81.5
45383;DHT22;42455;51.660;5.824;2022-09-13T17:32:11;24.0;81.5
45383;DHT22;42455;51.660;5.824;2022-09-13T17:37:17;23.9;82.0
45383;DHT22;42455;51.660;5.824;2022-09-13T17:42:23;23.8;82.0
45383;DHT22;42455;51.660;5.824;2022-09-13T17:47:29;23.7;82.0
45383;DHT22;42455;51.660;5.824;2022-09-13T17:52:35;23.6;81.5
45383;DHT22;42455;51.660;5.824;2022-09-13T17:57:42;23.4;82.0
45383;DHT22;42455;51.660;5.824;2022-09-13T18:02:48;23.3;82.0
45383;DHT22;42455;51.660;5.824;2022-09-13T18:07:54;23.2;82.0
45383;DHT22;42455;51.660;5.824;2022-09-13T18:13:00;23.1;82.0
45383;DHT22;42455;51.660;5.824;2022-09-13T18:18:07;23.0;82.0
45383;DHT22;42455;51.660;5.824;2022-09-13T18:23:13;22.9;81.5
45383;DHT22;42455;51.660;5.824;2022-09-13T18:28:19;22.7;81.5
45383;DHT22;42455;51.660;5.824;2022-09-13T18:33:26;22.7;81.5
45383;DHT22;42455;51.660;5.824;2022-09-13T18:38:33;22.6;81.5
45383;DHT22;42455;51.660;5.824;2022-09-13T18:43:38;22.5;81.5
45383;DHT22;42455;51.660;5.824;2022-09-13T18:48:45;22.4;81.5
45383;DHT22;42455;51.660;5.824;2022-09-13T18:53:50;22.3;81.5
45383;DHT22;42455;51.660;5.824;2022-09-13T18:58:55;22.3;81.5
45383;DHT22;42455;51.660;5.824;2022-09-13T19:04:02;22.2;81.0
45383;DHT22;42455;51.660;5.824;2022-09-13T19:09:08;22.1;81.0
45383;DHT22;42455;51.660;5.824;2022-09-13T19:14:14;22.0;81.0
45383;DHT22;42455;51.660;5.824;2022-09-13T19:19:19;21.9;80.5
45383;DHT22;42455;51.660;5.824;2022-09-13T19:24:25;21.8;80.5
45383;DHT22;42455;51.660;5.824;2022-09-13T19:29:32;21.7;80.5
45383;DHT22;42455;51.660;5.824;2022-09-13T19:34:38;21.7;80.5
45383;DHT22;42455;51.660;5.824;2022-09-13T19:39:44;21.6;80.5
45383;DHT22;42455;51.660;5.824;2022-09-13T19:44:50;21.5;81.0
45383;DHT22;42455;51.660;5.824;2022-09-13T19:49:56;21.5;81.0
45383;DHT22;42455;51.660;5.824;2022-09-13T19:55:03;21.4;81.0
45383;DHT22;42455;51.660;5.824;2022-09-13T20:00:10;21.4;81.0
45383;DHT22;42455;51.660;5.824;2022-09-13T20:05:15;21.3;81.0
45383;DHT22;42455;51.660;5.824;2022-09-13T20:10:21;21.3;81.0
45383;DHT22;42455;51.660;5.824;2022-09-13T20:15:27;21.2;81.0
45383;DHT22;42455;51.660;5.824;2022-09-13T20:20:34;21.2;81.0
45383;DHT22;42455;51.660;5.824;2022-09-13T20:25:40;21.1;81.0
45383;DHT22;42455;51.660;5.824;2022-09-13T20:30:50;21.1;81.0
45383;DHT22;42455;51.660;5.824;2022-09-13T20:35:52;21.0;81.0
45383;DHT22;42455;51.660;5.824;2022-09-13T20:41:00;21.0;81.0
45383;DHT22;42455;51.660;5.824;2022-09-13T20:46:04;20.9;81.0
45383;DHT22;42455;51.660;5.824;2022-09-13T20:51:14;20.9;81.5
45383;DHT22;42455;51.660;5.824;2022-09-13T20:56:16;20.9;81.5
45383;DHT22;42455;51.660;5.824;2022-09-13T21:01:21;20.8;81.5
45383;DHT22;42455;51.660;5.824;2022-09-13T21:06:35;20.7;81.5
45383;DHT22;42455;51.660;5.824;2022-09-13T21:11:35;20.6;81.5
45383;DHT22;42455;51.660;5.824;2022-09-13T21:16:40;20.5;82.0
45383;DHT22;42455;51.660;5.824;2022-09-13T21:21:46;20.4;82.5
45383;DHT22;42455;51.660;5.824;2022-09-13T21:26:52;20.3;82.5
45383;DHT22;42455;51.660;5.824;2022-09-13T21:31:59;20.2;83.0
45383;DHT22;42455;51.660;5.824;2022-09-13T21:37:05;20.2;83.0
45383;DHT22;42455;51.660;5.824;2022-09-13T21:42:11;20.1;83.0
45383;DHT22;42455;51.660;5.824;2022-09-13T21:47:17;20.0;83.5
45383;DHT22;42455;51.660;5.824;2022-09-13T21:52:24;20.0;83.5
45383;DHT22;42455;51.660;5.824;2022-09-13T21:57:30;19.9;84.0
45383;DHT22;42455;51.660;5.824;2022-09-13T22:02:36;19.9;84.0
45383;DHT22;42455;51.660;5.824;2022-09-13T22:07:42;19.9;84.5
45383;DHT22;42455;51.660;5.824;2022-09-13T22:12:48;19.8;84.5
45383;DHT22;42455;51.660;5.824;2022-09-13T22:17:54;19.8;84.5
45383;DHT22;42455;51.660;5.824;2022-09-13T22:23:01;19.8;84.5
45383;DHT22;42455;51.660;5.824;2022-09-13T22:28:07;19.7;85.0
45383;DHT22;42455;51.660;5.824;2022-09-13T22:33:13;19.7;85.0
45383;DHT22;42455;51.660;5.824;2022-09-13T22:38:19;19.7;85.0
45383;DHT22;42455;51.660;5.824;2022-09-13T22:43:25;19.6;85.0
45383;DHT22;42455;51.660;5.824;2022-09-13T22:48:31;19.6;85.0
45383;DHT22;42455;51.660;5.824;2022-09-13T22:53:39;19.6;85.0
45383;DHT22;42455;51.660;5.824;2022-09-13T22:58:44;19.6;85.0
45383;DHT22;42455;51.660;5.824;2022-09-13T23:03:50;19.5;85.0
45383;DHT22;42455;51.660;5.824;2022-09-13T23:08:58;19.5;85.0
45383;DHT22;42455;51.660;5.824;2022-09-13T23:14:05;19.5;85.0
45383;DHT22;42455;51.660;5.824;2022-09-13T23:19:10;19.5;85.0
45383;DHT22;42455;51.660;5.824;2022-09-13T23:24:16;19.5;85.0
45383;DHT22;42455;51.660;5.824;2022-09-13T23:29:21;19.5;85.0
45383;DHT22;42455;51.660;5.824;2022-09-13T23:34:27;19.4;85.0
45383;DHT22;42455;51.660;5.824;2022-09-13T23:39:33;19.4;85.0
45383;DHT22;42455;51.660;5.824;2022-09-13T23:44:39;19.4;85.0
45383;DHT22;42455;51.660;5.824;2022-09-13T23:49:45;19.3;85.0
45383;DHT22;42455;51.660;5.824;2022-09-13T23:54:51;19.3;85.0
45383;DHT22;42455;51.660;5.824;2022-09-13T23:59:58;19.3;85.0
